Omega, Oklahoma
Current Conditions -  °F | °C
As of 1:15 AM on Friday 19 Dec 2014 (Local Time) from KJWG Reporting Station
Moderate Fog Moderate Fog  
Wind Chill: 31°   Ceiling: 100
Heat Index: 36°   Visibility: 0.5mi
Dew Point: 36°   Wind: 6mph
Humidity: 100%   Direction: 20°NNE
Pressure: 30.23"   Gusts: NA
Location:  35.87°N, 98.2°W
Report Text: KJWG 190715Z AUTO 02005KT 1/2SM FG OVC001 02/02 A3023 RMK AO2 T00200020 TSNO
Loading
Personal Weather Stations






























Interactive Weather Map New forecast layout! Learn more

10-Day Weather Forecast

Advertisements
Track Severe Weather on mobile